»·PEaware :: N124AB KAVX-KSAN

N124AB :: KAVX-KSAN

FLIGHT INFORMATION

Flight Status: Arrived
Operator: Privately registered:
United States
More flights under this callsign
Pilot: Mats S. (16098)
Aircraft: BEECH AIRCRAFT BARON
(BE58)
More flights by this aircraft type
Origin: KAVX Catalina
United States
Destination: KSAN San Diego Intl-Lindbergh
United States
More flights between these airports :: More routes between these airports
Route: +SXC V208 OCN V23 MZB
File this flight plan on PilotEdge
Remarks: I-8
Altitude:
(Current/Filed)
7,000ft
Speed:
(Current/Filed)
180kts
Departed: 28-Sep-17 01:02 PM
Arrived: 28-Sep-17 03:45 PM
Distance/Time
Traveled:
74nm/2:43
Distance/Time
To Go:
Arrived

Flight Plot

Page will automatically refresh every two minutes.


Map Options




Map Legend


Flown Route
Filed Route
Departure Airport
Arrival Airport
Navaid (VOR, NDB)
Fix

Horizontal Profiles

Position Reports

Time Latitude Longitude Heading Altitude Ground
Speed
28-Sep-17 12:43 33.403300 -118.415965 45 1548ft 0kts
28-Sep-17 12:44 33.403300 -118.415965 45 1548ft 0kts
28-Sep-17 12:45 33.403300 -118.415965 45 1548ft 0kts
28-Sep-17 12:46 33.403300 -118.415965 45 1548ft 0kts
28-Sep-17 12:47 33.403300 -118.415965 45 1548ft 0kts
28-Sep-17 12:48 33.403300 -118.415965 45 1548ft 0kts
28-Sep-17 12:49 33.403300 -118.415965 45 1548ft 0kts
28-Sep-17 12:50 33.403300 -118.415965 45 1548ft 0kts
28-Sep-17 12:51 33.403300 -118.415965 45 1548ft 0kts
28-Sep-17 12:52 33.403300 -118.415965 45 1548ft 0kts
28-Sep-17 12:53 33.403300 -118.415965 45 1548ft 0kts
28-Sep-17 12:54 33.403300 -118.415965 45 1548ft 0kts
28-Sep-17 12:55 33.403300 -118.415965 45 1548ft 0kts
28-Sep-17 12:56 33.403300 -118.415965 45 1548ft 0kts
28-Sep-17 12:57 33.403300 -118.415965 45 1548ft 0kts
28-Sep-17 12:58 33.403300 -118.415965 45 1548ft 0kts
28-Sep-17 12:59 33.403300 -118.415965 45 1548ft 0kts
28-Sep-17 13:00 33.403300 -118.415965 45 1548ft 0kts
28-Sep-17 13:01 33.404006 -118.414990 3 1541ft 12kts
28-Sep-17 13:02 33.404541 -118.415052 343 1541ft 1kts
28-Sep-17 13:03 33.405004 -118.414984 29 1539ft 8kts
28-Sep-17 13:04 33.406321 -118.412791 48 1512ft 15kts
28-Sep-17 13:05 33.407406 -118.411643 259 1498ft 5kts
28-Sep-17 13:06 33.406046 -118.414018 236 1526ft 47kts
28-Sep-17 13:07 33.396005 -118.436218 248 1804ft 115kts
28-Sep-17 13:08 33.387942 -118.463930 247 2282ft 116kts
28-Sep-17 13:09 33.374758 -118.493064 231 3121ft 143kts
28-Sep-17 13:10 33.339519 -118.511290 168 2318ft 199kts
28-Sep-17 13:11 33.306873 -118.490381 140 3200ft 172kts
28-Sep-17 13:12 33.279725 -118.459649 144 3417ft 178kts
28-Sep-17 13:13 33.255693 -118.437315 105 3167ft 165kts
28-Sep-17 13:14 33.265136 -118.412530 356 2791ft 162kts
28-Sep-17 13:15 33.287843 -118.419618 26 3407ft 109kts
28-Sep-17 13:16 33.314040 -118.409673 19 3733ft 142kts
28-Sep-17 13:17 33.342592 -118.398040 18 3883ft 143kts
28-Sep-17 13:18 33.367864 -118.385071 29 4233ft 131kts
28-Sep-17 13:19 33.382200 -118.361523 111 4472ft 132kts
28-Sep-17 13:20 33.365468 -118.333787 117 4731ft 131kts
28-Sep-17 13:21 33.360837 -118.300291 94 4975ft 131kts
28-Sep-17 13:22 33.357752 -118.262251 94 5143ft 153kts
28-Sep-17 13:23 33.355106 -118.229478 94 5360ft 156kts
28-Sep-17 13:24 33.355106 -118.229478 94 5360ft 156kts
28-Sep-17 13:25 33.403289 -118.415950 45 1548ft 0kts
28-Sep-17 13:26 33.403289 -118.415950 45 1548ft 0kts
28-Sep-17 13:27 33.403289 -118.415950 45 1548ft 0kts
28-Sep-17 13:28 33.403289 -118.415950 45 1548ft 0kts
28-Sep-17 13:29 33.403289 -118.415950 45 1548ft 0kts
28-Sep-17 13:30 33.403289 -118.415950 45 1548ft 0kts
28-Sep-17 13:31 33.403289 -118.415950 45 1548ft 0kts
28-Sep-17 13:32 33.403289 -118.415950 45 1548ft 0kts
28-Sep-17 13:33 33.403289 -118.415950 45 1548ft 0kts
28-Sep-17 13:34 33.403289 -118.415950 45 1548ft 0kts
28-Sep-17 13:35 33.403289 -118.415950 45 1548ft 0kts
28-Sep-17 13:36 33.403289 -118.415950 45 1548ft 0kts
28-Sep-17 13:37 33.403289 -118.415950 45 1548ft 0kts
28-Sep-17 13:38 33.403289 -118.415950 45 1548ft 0kts
28-Sep-17 13:39 33.403289 -118.415950 45 1548ft 0kts
28-Sep-17 13:40 33.403289 -118.415950 45 1548ft 0kts
28-Sep-17 13:41 33.403289 -118.415950 45 1548ft 0kts
28-Sep-17 13:42 33.403289 -118.415950 45 1548ft 0kts
28-Sep-17 13:43 33.403612 -118.415243 60 1544ft 1kts
28-Sep-17 13:44 33.405179 -118.414759 50 1536ft 0kts
28-Sep-17 13:45 33.406949 -118.411746 53 1500ft 2kts
28-Sep-17 13:46 33.407451 -118.411515 283 1496ft 5kts
28-Sep-17 13:47 33.405246 -118.414414 332 1533ft 2kts
28-Sep-17 13:48 33.406202 -118.413017 52 1515ft 0kts
28-Sep-17 13:49 33.406513 -118.412504 56 1509ft 9kts
28-Sep-17 13:50 33.407101 -118.411507 54 1497ft 6kts
28-Sep-17 13:51 33.407380 -118.411442 296 1496ft 2kts
28-Sep-17 13:52 33.405163 -118.413331 358 1522ft 0kts
28-Sep-17 13:53 33.405165 -118.413331 350 1522ft 0kts
28-Sep-17 13:54 33.405171 -118.413334 329 1522ft 0kts
28-Sep-17 13:55 33.403312 -118.415939 44 1548ft 2kts
28-Sep-17 13:56 33.404294 -118.414990 350 1541ft 3kts
28-Sep-17 14:00 33.403313 -118.415910 60 1548ft 3kts
28-Sep-17 14:08 33.403301 -118.415953 45 1548ft 0kts
28-Sep-17 14:09 33.403301 -118.415952 45 1548ft 0kts
28-Sep-17 14:10 33.403301 -118.415952 45 1548ft 0kts
28-Sep-17 14:11 33.403301 -118.415952 45 1548ft 0kts
28-Sep-17 14:12 33.403301 -118.415952 45 1548ft 0kts
28-Sep-17 14:13 33.403301 -118.415952 45 1548ft 0kts
28-Sep-17 14:14 33.403301 -118.415952 45 1548ft 0kts
28-Sep-17 14:15 33.403301 -118.415952 45 1548ft 0kts
28-Sep-17 14:16 33.403301 -118.415952 45 1548ft 0kts
28-Sep-17 14:17 33.403301 -118.415952 45 1548ft 0kts
28-Sep-17 14:18 33.403301 -118.415952 45 1548ft 0kts
28-Sep-17 14:19 33.403618 -118.415213 48 1543ft 14kts
28-Sep-17 14:20 33.406573 -118.412359 56 1507ft 27kts
28-Sep-17 14:21 33.407119 -118.411474 51 1497ft 0kts
28-Sep-17 14:22 33.407180 -118.412123 235 1503ft 15kts
28-Sep-17 14:28 33.407055 -118.411600 54 1498ft 0kts
28-Sep-17 14:29 33.407055 -118.411600 54 1498ft 0kts
28-Sep-17 14:30 33.407055 -118.411600 54 1498ft 0kts
28-Sep-17 14:31 33.407055 -118.411600 54 1498ft 0kts
28-Sep-17 14:32 33.407055 -118.411600 54 1498ft 0kts
28-Sep-17 14:33 33.407055 -118.411600 54 1498ft 0kts
28-Sep-17 14:34 33.407055 -118.411600 54 1498ft 0kts
28-Sep-17 14:35 33.407267 -118.411316 18 1495ft 3kts
28-Sep-17 14:36 33.405759 -118.414439 236 1531ft 77kts
28-Sep-17 14:37 33.395327 -118.428145 226 2245ft 111kts
28-Sep-17 14:38 33.378360 -118.434702 145 3239ft 116kts
28-Sep-17 14:39 33.374190 -118.416339 70 3930ft 118kts
28-Sep-17 14:40 33.368009 -118.395170 106 3757ft 117kts
28-Sep-17 14:41 33.365741 -118.370350 92 3927ft 95kts
28-Sep-17 14:42 33.363924 -118.346445 92 4034ft 98kts
28-Sep-17 14:43 33.362028 -118.321146 92 4304ft 92kts
28-Sep-17 14:44 33.359835 -118.295910 96 4893ft 107kts
28-Sep-17 14:45 33.355631 -118.263825 99 5089ft 150kts
28-Sep-17 14:46 33.348971 -118.223368 99 5027ft 174kts
28-Sep-17 14:47 33.341938 -118.180126 99 4988ft 177kts
28-Sep-17 14:48 33.336365 -118.136909 102 4979ft 178kts
28-Sep-17 14:49 33.328986 -118.097462 89 4985ft 176kts
28-Sep-17 14:50 33.329036 -118.060735 88 4977ft 177kts
28-Sep-17 14:51 33.329017 -118.021668 88 5076ft 174kts
28-Sep-17 14:52 33.328864 -117.981120 88 5067ft 177kts
28-Sep-17 14:53 33.324097 -117.945074 105 5058ft 179kts
28-Sep-17 14:54 33.316824 -117.917611 105 5051ft 180kts
28-Sep-17 14:55 33.309980 -117.892077 105 5044ft 181kts
28-Sep-17 14:56 33.302767 -117.862730 103 5036ft 182kts
28-Sep-17 14:57 33.296462 -117.836482 103 5027ft 183kts
28-Sep-17 14:58 33.291406 -117.809859 93 5026ft 183kts
28-Sep-17 14:59 33.288564 -117.782878 97 5025ft 184kts
28-Sep-17 15:00 33.284495 -117.755897 97 5024ft 184kts
28-Sep-17 15:01 33.280388 -117.728860 97 5024ft 184kts
28-Sep-17 15:02 33.276753 -117.702242 94 5024ft 184kts
28-Sep-17 15:03 33.273817 -117.675293 94 5024ft 184kts
28-Sep-17 15:04 33.271074 -117.647294 93 5024ft 184kts
28-Sep-17 15:05 33.268380 -117.618588 93 5024ft 184kts
28-Sep-17 15:06 33.265693 -117.589874 93 5015ft 184kts
28-Sep-17 15:07 33.262902 -117.559085 93 5013ft 185kts
28-Sep-17 15:08 33.259601 -117.522078 95 5012ft 186kts
28-Sep-17 15:09 33.254031 -117.477862 99 5009ft 187kts
28-Sep-17 15:10 33.245448 -117.434857 106 5008ft 187kts
28-Sep-17 15:11 33.226467 -117.413130 156 4985ft 182kts
28-Sep-17 15:12 33.203337 -117.402317 161 4991ft 184kts
28-Sep-17 15:13 33.174634 -117.388781 160 4994ft 186kts
28-Sep-17 15:14 33.143516 -117.374266 159 4999ft 186kts
28-Sep-17 15:15 33.110238 -117.359131 160 5004ft 186kts
28-Sep-17 15:16 33.074644 -117.343676 165 5003ft 186kts
28-Sep-17 15:17 33.037004 -117.330916 165 5003ft 186kts
28-Sep-17 15:18 32.999072 -117.316753 159 5003ft 187kts
28-Sep-17 15:19 32.963026 -117.300016 159 5003ft 187kts
28-Sep-17 15:20 32.928519 -117.284167 159 5002ft 188kts
28-Sep-17 15:21 32.895987 -117.271429 163 5000ft 189kts
28-Sep-17 15:22 32.861611 -117.259120 163 4998ft 189kts
28-Sep-17 15:23 32.837099 -117.236422 108 5004ft 183kts
28-Sep-17 15:24 32.826399 -117.200826 106 4999ft 184kts
28-Sep-17 15:25 32.815910 -117.165289 106 4999ft 183kts
28-Sep-17 15:26 32.805075 -117.128337 106 5001ft 183kts
28-Sep-17 15:27 32.794558 -117.092149 106 5000ft 183kts
28-Sep-17 15:28 32.785106 -117.059330 106 5000ft 184kts
28-Sep-17 15:29 32.776178 -117.028049 106 4999ft 184kts
28-Sep-17 15:30 32.766619 -116.994232 106 4998ft 185kts
28-Sep-17 15:31 32.756497 -116.958033 106 4997ft 185kts
28-Sep-17 15:32 32.745607 -116.918636 106 4997ft 185kts
28-Sep-17 15:33 32.733455 -116.874123 106 4997ft 185kts
28-Sep-17 15:34 32.711131 -116.841519 189 4969ft 152kts
28-Sep-17 15:35 32.691649 -116.856870 240 4746ft 108kts
28-Sep-17 15:36 32.681351 -116.886485 252 3971ft 144kts
28-Sep-17 15:37 32.672349 -116.913695 252 3783ft 122kts
28-Sep-17 15:38 32.667471 -116.941326 281 3910ft 120kts
28-Sep-17 15:39 32.674177 -116.965255 293 3889ft 126kts
28-Sep-17 15:40 32.683325 -116.992251 293 3757ft 133kts
28-Sep-17 15:41 32.691187 -117.016955 287 3499ft 129kts
28-Sep-17 15:42 32.696690 -117.042018 286 3268ft 128kts
28-Sep-17 15:43 32.703185 -117.066286 290 2974ft 131kts
28-Sep-17 15:44 32.710015 -117.090244 286 2527ft 137kts
28-Sep-17 15:45 32.714968 -117.114292 287 2053ft 137kts
28-Sep-17 15:46 32.719877 -117.133066 288 1683ft 118kts
28-Sep-17 15:47 32.725010 -117.152729 288 1203ft 114kts
28-Sep-17 15:48 32.729744 -117.175414 292 448ft 123kts
28-Sep-17 15:49 32.733847 -117.190848 301 14ft 10kts
28-Sep-17 15:50 32.734450 -117.190948 33 14ft 0kts
28-Sep-17 15:51 32.734741 -117.190725 43 14ft 4kts
28-Sep-17 15:52 32.734698 -117.188127 107 14ft 23kts
28-Sep-17 15:53 32.733665 -117.185216 111 14ft 10kts
28-Sep-17 15:54 32.733327 -117.183688 102 14ft 16kts
28-Sep-17 15:55 32.732638 -117.180087 88 16ft 18kts
28-Sep-17 15:56 32.732907 -117.178651 69 17ft 1kts
28-Sep-17 15:57 32.732921 -117.178606 69 17ft 0kts

Navigation Log

Ident Type
1. KAVX Airport
2. SXC Navaid
3. AVOLS Fix
4. PACIF Fix
5. HUBRD Fix
6. OCN Navaid
7. HURSI Fix
8. CARIF Fix
9. MZB Navaid
10. KSAN Airport